Time;durP1;ratioP1;P1;durP2;ratioP2;P2;SDS_P1;SDS_P2;PMS_P1;PMS_P2;Temp;Humidity;BMP_temperature;BMP_pressure;BME280_temperature;BME280_humidity;BME280_pressure;Samples;Min_cycle;Max_cycle;Signal;HPM_P1;HPM_P2
2022/02/20 00:01:13;;;;;;;3.60;0.22;;;5.30;99.90;;;;;;5028294;28;20041;-67
2022/02/20 00:03:39;;;;;;;2.42;0.30;;;5.30;99.90;;;;;;5028045;28;20112;-67
2022/02/20 00:06:05;;;;;;;4.40;0.43;;;5.30;99.90;;;;;;5028457;28;20057;-69
2022/02/20 00:08:30;;;;;;;7.85;0.43;;;5.30;99.90;;;;;;5029380;28;20038;-68
2022/02/20 00:10:56;;;;;;;4.95;0.50;;;5.30;99.90;;;;;;5031243;28;20534;-68
2022/02/20 00:13:22;;;;;;;4.25;0.93;;;5.20;99.90;;;;;;5031877;28;20033;-68
2022/02/20 00:15:47;;;;;;;9.00;0.47;;;5.30;99.90;;;;;;5031016;28;20036;-67
2022/02/20 00:18:13;;;;;;;12.52;2.00;;;5.30;99.90;;;;;;5032016;28;20046;-68
2022/02/20 00:20:38;;;;;;;1.17;0.35;;;5.30;99.90;;;;;;5030961;28;20529;-66
2022/02/20 00:23:04;;;;;;;6.85;1.33;;;5.30;99.90;;;;;;5032212;28;20051;-67
2022/02/20 00:25:34;;;;;;;3.90;0.43;;;5.30;99.90;;;;;;5029798;28;20091;-69
2022/02/20 00:28:02;;;;;;;3.33;0.50;;;5.30;99.90;;;;;;5032372;28;20440;-68
2022/02/20 00:30:28;;;;;;;3.92;0.57;;;5.20;99.90;;;;;;5031185;28;20033;-67
2022/02/20 00:32:58;;;;;;;4.00;0.82;;;5.20;99.90;;;;;;5031807;28;20553;-68
2022/02/20 00:35:30;;;;;;;10.15;1.05;;;5.20;99.90;;;;;;5028138;28;20034;-67
2022/02/20 00:37:57;;;;;;;4.95;0.82;;;5.30;99.90;;;;;;5028613;28;20155;-67
2022/02/20 00:40:23;;;;;;;3.38;0.30;;;5.30;99.90;;;;;;5031248;28;20041;-67
2022/02/20 00:42:49;;;;;;;8.23;1.75;;;5.30;99.90;;;;;;5029981;28;20057;-68
2022/02/20 00:45:15;;;;;;;0.90;0.32;;;5.30;99.90;;;;;;5032319;28;20045;-67
2022/02/20 00:47:41;;;;;;;3.92;0.77;;;5.30;99.90;;;;;;5031205;28;20044;-68
2022/02/20 00:50:08;;;;;;;4.75;0.63;;;5.30;99.90;;;;;;5031593;28;20048;-69
2022/02/20 00:52:34;;;;;;;3.53;1.50;;;5.30;99.90;;;;;;5031080;28;20048;-68
2022/02/20 00:54:59;;;;;;;4.28;0.68;;;5.40;99.90;;;;;;5031774;28;20041;-69
2022/02/20 00:57:25;;;;;;;3.45;0.50;;;5.30;99.90;;;;;;5031058;28;20037;-68
2022/02/20 00:59:52;;;;;;;2.28;0.30;;;5.40;99.90;;;;;;5031052;28;20136;-65
2022/02/20 01:02:18;;;;;;;0.90;0.17;;;5.40;99.90;;;;;;5031384;28;20163;-67
2022/02/20 01:04:44;;;;;;;1.30;0.20;;;5.40;99.90;;;;;;5031161;28;20120;-66
2022/02/20 01:07:09;;;;;;;6.88;1.25;;;5.30;99.90;;;;;;5030203;28;20083;-68
2022/02/20 01:09:35;;;;;;;1.77;0.20;;;5.40;99.90;;;;;;5029704;28;20029;-67
2022/02/20 01:12:01;;;;;;;0.30;0.10;;;5.40;99.90;;;;;;5027966;28;20037;-68
2022/02/20 01:14:26;;;;;;;2.90;0.20;;;5.40;99.90;;;;;;5029633;28;20095;-68
2022/02/20 01:16:52;;;;;;;2.97;0.98;;;5.30;99.90;;;;;;5030139;28;20034;-68
2022/02/20 01:19:17;;;;;;;4.28;0.52;;;5.40;99.90;;;;;;5029437;28;20030;-67
2022/02/20 01:21:43;;;;;;;4.63;0.95;;;5.40;99.90;;;;;;5029787;28;20143;-67
2022/02/20 01:24:09;;;;;;;3.15;0.20;;;5.40;99.90;;;;;;5029500;28;20045;-68
2022/02/20 01:26:35;;;;;;;6.10;0.90;;;5.50;99.90;;;;;;5028591;28;20037;-68
2022/02/20 01:29:00;;;;;;;2.03;0.30;;;5.50;99.90;;;;;;5031081;28;20078;-68
2022/02/20 01:31:26;;;;;;;5.00;0.25;;;5.40;99.90;;;;;;5030445;28;20120;-68
2022/02/20 01:33:52;;;;;;;4.20;0.68;;;5.40;99.90;;;;;;5030453;28;20030;-66
2022/02/20 01:36:17;;;;;;;4.10;0.20;;;5.50;99.90;;;;;;5025777;28;20037;-68
2022/02/20 01:38:43;;;;;;;1.10;0.10;;;5.40;99.90;;;;;;5030537;28;20040;-68
2022/02/20 01:41:08;;;;;;;2.97;0.55;;;5.40;99.90;;;;;;5029293;28;20041;-68
2022/02/20 01:43:34;;;;;;;3.05;0.40;;;5.40;99.90;;;;;;5032539;28;20398;-68
2022/02/20 01:46:00;;;;;;;2.97;0.10;;;5.40;99.90;;;;;;5030910;28;20095;-68
2022/02/20 01:48:25;;;;;;;2.92;0.10;;;5.40;99.90;;;;;;5030076;28;20122;-68
2022/02/20 01:50:51;;;;;;;4.53;0.60;;;5.40;99.90;;;;;;5028469;28;20088;-68
2022/02/20 01:53:18;;;;;;;2.65;0.03;;;5.40;99.90;;;;;;5024974;28;20503;-67
2022/02/20 01:55:44;;;;;;;0.22;0.10;;;5.40;99.90;;;;;;5028906;28;20034;-68
2022/02/20 01:58:10;;;;;;;3.13;0.20;;;5.50;99.90;;;;;;5030432;28;20042;-68
2022/02/20 02:00:35;;;;;;;1.98;0.93;;;5.40;99.90;;;;;;5029223;28;20091;-66
2022/02/20 02:03:01;;;;;;;2.03;0.30;;;5.40;99.90;;;;;;5028691;28;20037;-68
2022/02/20 02:05:27;;;;;;;1.83;0.55;;;5.40;99.90;;;;;;5030115;28;20037;-68
2022/02/20 02:07:53;;;;;;;3.25;0.25;;;5.40;99.90;;;;;;5030249;28;20095;-67
2022/02/20 02:10:18;;;;;;;1.88;0.15;;;5.40;99.90;;;;;;5028872;28;20030;-68
2022/02/20 02:12:44;;;;;;;4.68;0.40;;;5.40;99.90;;;;;;5029723;28;20030;-67
2022/02/20 02:15:12;;;;;;;6.68;1.02;;;5.30;99.90;;;;;;5028516;28;20064;-67
2022/02/20 02:17:38;;;;;;;3.25;0.20;;;5.40;99.90;;;;;;5029870;28;20033;-68
2022/02/20 02:20:07;;;;;;;5.13;0.32;;;5.40;99.90;;;;;;5029409;28;20033;-67
2022/02/20 02:22:33;;;;;;;2.35;0.20;;;5.40;99.90;;;;;;5029772;28;20088;-68
2022/02/20 02:24:59;;;;;;;7.03;0.60;;;5.40;99.90;;;;;;5029975;28;20494;-67
2022/02/20 02:27:26;;;;;;;4.18;0.30;;;5.40;99.90;;;;;;5029698;28;20124;-66
2022/02/20 02:29:53;;;;;;;1.30;0.10;;;5.40;99.90;;;;;;5029294;28;20038;-67
2022/02/20 02:32:20;;;;;;;3.90;0.30;;;5.40;99.90;;;;;;5029072;28;20033;-67
2022/02/20 02:34:47;;;;;;;1.55;0.20;;;5.40;99.90;;;;;;5025616;28;20036;-68
2022/02/20 02:37:13;;;;;;;3.95;0.43;;;5.40;99.90;;;;;;5029942;28;20033;-67
2022/02/20 02:39:40;;;;;;;7.78;0.65;;;5.40;99.90;;;;;;5029253;28;20506;-67
2022/02/20 02:42:08;;;;;;;5.50;0.20;;;5.30;99.90;;;;;;5032469;28;20436;-68
2022/02/20 02:44:33;;;;;;;2.17;0.20;;;5.30;99.90;;;;;;5028941;28;20479;-67
2022/02/20 02:46:59;;;;;;;3.90;0.60;;;5.30;99.90;;;;;;5029681;28;20029;-67
2022/02/20 02:49:25;;;;;;;2.53;0.30;;;5.30;99.90;;;;;;5029270;28;20045;-67
2022/02/20 02:51:50;;;;;;;9.75;0.30;;;5.30;99.90;;;;;;5027424;28;20037;-67
2022/02/20 02:54:20;;;;;;;2.35;0.25;;;5.30;99.90;;;;;;5029402;28;20056;-67
2022/02/20 02:56:47;;;;;;;3.05;0.22;;;5.30;99.90;;;;;;5025833;28;20052;-67
2022/02/20 02:59:13;;;;;;;3.83;0.28;;;5.30;99.90;;;;;;5025732;28;20041;-67
2022/02/20 03:01:41;;;;;;;3.15;0.95;;;5.30;99.90;;;;;;5027652;28;20036;-65
2022/02/20 03:04:06;;;;;;;5.25;0.82;;;5.30;99.90;;;;;;5029229;28;20080;-68
2022/02/20 03:06:32;;;;;;;2.03;0.30;;;5.30;99.90;;;;;;5027795;28;20033;-68
2022/02/20 03:08:57;;;;;;;3.22;0.40;;;5.30;99.90;;;;;;5027690;28;20053;-67
2022/02/20 03:11:23;;;;;;;4.63;0.60;;;5.30;99.90;;;;;;5028491;28;20117;-67
2022/02/20 03:13:49;;;;;;;1.73;0.38;;;5.30;99.90;;;;;;5029195;28;20044;-68
2022/02/20 03:16:14;;;;;;;5.47;0.75;;;5.30;99.90;;;;;;5027863;28;20046;-67
2022/02/20 03:18:40;;;;;;;4.30;0.20;;;5.30;99.90;;;;;;5028621;28;20087;-67
2022/02/20 03:21:06;;;;;;;4.13;0.40;;;5.30;99.90;;;;;;5028896;28;20422;-68
2022/02/20 03:23:33;;;;;;;4.38;0.82;;;5.30;99.90;;;;;;5027239;28;20084;-68
2022/02/20 03:25:59;;;;;;;3.30;0.35;;;5.30;99.90;;;;;;5029220;28;20034;-68
2022/02/20 03:28:25;;;;;;;3.55;0.32;;;5.30;99.90;;;;;;5027477;28;20102;-67
2022/02/20 03:30:51;;;;;;;2.05;0.63;;;5.30;99.90;;;;;;5027198;28;20037;-68
2022/02/20 03:33:17;;;;;;;6.13;2.05;;;5.30;99.90;;;;;;5027659;28;20395;-68
2022/02/20 03:35:43;;;;;;;4.75;0.68;;;5.30;99.90;;;;;;5028742;28;20041;-68
2022/02/20 03:38:09;;;;;;;12.35;1.38;;;5.30;99.90;;;;;;5027327;28;20042;-68
2022/02/20 03:40:34;;;;;;;3.05;0.50;;;5.20;99.90;;;;;;5026648;28;20040;-68
2022/02/20 03:43:00;;;;;;;2.92;0.30;;;5.20;99.90;;;;;;5032196;28;20051;-67
2022/02/20 03:45:27;;;;;;;2.78;0.30;;;5.20;99.90;;;;;;5032647;28;20056;-67
2022/02/20 03:47:52;;;;;;;3.97;0.60;;;5.20;99.90;;;;;;5032951;28;20036;-67
2022/02/20 03:50:18;;;;;;;3.83;0.40;;;5.20;99.90;;;;;;5031685;28;20033;-68
2022/02/20 03:52:45;;;;;;;4.28;1.10;;;5.10;99.90;;;;;;5031207;28;20187;-68
2022/02/20 03:55:12;;;;;;;1.55;0.45;;;5.20;99.90;;;;;;5027795;28;20731;-68
2022/02/20 03:57:39;;;;;;;4.35;0.68;;;5.20;99.90;;;;;;5031166;28;20030;-68
2022/02/20 04:00:10;;;;;;;7.05;0.70;;;5.20;99.90;;;;;;5030646;28;20095;-68
2022/02/20 04:02:37;;;;;;;4.40;1.15;;;5.10;99.90;;;;;;5030932;28;20116;-68
2022/02/20 04:05:04;;;;;;;2.08;0.60;;;5.10;99.90;;;;;;5032424;28;20041;-68
2022/02/20 04:07:29;;;;;;;6.70;0.73;;;5.10;99.90;;;;;;5032157;28;20045;-68
2022/02/20 04:09:55;;;;;;;10.90;1.30;;;5.20;99.90;;;;;;5031946;28;20039;-68
2022/02/20 04:12:21;;;;;;;5.97;1.17;;;5.20;99.90;;;;;;5032521;28;20087;-67
2022/02/20 04:14:46;;;;;;;5.50;1.13;;;5.20;99.90;;;;;;5031808;28;20667;-68
2022/02/20 04:17:12;;;;;;;9.20;1.92;;;5.20;99.90;;;;;;5032297;28;20041;-68
2022/02/20 04:19:37;;;;;;;8.48;1.25;;;5.20;99.90;;;;;;5031736;28;20041;-68
2022/02/20 04:22:03;;;;;;;8.95;1.67;;;5.20;99.90;;;;;;5032130;28;20079;-68
2022/02/20 04:24:28;;;;;;;4.10;1.13;;;5.10;99.90;;;;;;5032031;28;20052;-67
2022/02/20 04:26:54;;;;;;;4.95;1.05;;;5.10;99.90;;;;;;5032161;28;20514;-67
2022/02/20 04:29:20;;;;;;;5.70;1.08;;;5.00;99.90;;;;;;5032423;28;20455;-68
2022/02/20 04:31:46;;;;;;;5.25;2.03;;;5.00;99.90;;;;;;5029718;28;20030;-69
2022/02/20 04:34:11;;;;;;;10.27;2.08;;;5.00;99.90;;;;;;5031080;28;20037;-67
2022/02/20 04:36:38;;;;;;;8.68;2.67;;;4.90;99.90;;;;;;5027846;28;20049;-67
2022/02/20 04:39:05;;;;;;;7.90;2.03;;;4.90;99.90;;;;;;5030663;28;20477;-66
2022/02/20 04:41:31;;;;;;;9.55;2.97;;;4.80;99.90;;;;;;5031834;28;20509;-67
2022/02/20 04:43:57;;;;;;;9.68;2.70;;;4.80;99.90;;;;;;5033134;28;20094;-69
2022/02/20 04:46:22;;;;;;;10.48;2.80;;;4.70;99.90;;;;;;5031366;28;20060;-69
2022/02/20 04:48:48;;;;;;;8.73;3.33;;;4.70;99.90;;;;;;5030539;28;20037;-67
2022/02/20 04:51:14;;;;;;;10.02;3.45;;;4.70;99.90;;;;;;5029702;28;20163;-67
2022/02/20 04:53:39;;;;;;;10.32;3.35;;;4.70;99.90;;;;;;5029354;28;20034;-68
2022/02/20 04:56:05;;;;;;;7.90;3.28;;;4.70;99.90;;;;;;5031507;28;20036;-67
2022/02/20 04:58:31;;;;;;;10.02;3.55;;;4.70;99.90;;;;;;5029696;28;20056;-67
2022/02/20 05:00:57;;;;;;;10.00;4.03;;;4.70;99.90;;;;;;5030190;28;20063;-67
2022/02/20 05:03:22;;;;;;;12.88;3.40;;;4.70;99.90;;;;;;5032086;28;20037;-73
2022/02/20 05:05:48;;;;;;;9.52;3.30;;;4.60;99.90;;;;;;5030327;28;20030;-68
2022/02/20 05:08:14;;;;;;;12.52;3.70;;;4.60;99.90;;;;;;5031977;28;20511;-69
2022/02/20 05:10:40;;;;;;;9.70;4.10;;;4.70;99.90;;;;;;5030807;28;20039;-67
2022/02/20 05:13:05;;;;;;;16.05;4.60;;;4.70;99.90;;;;;;5026707;28;20410;-68
2022/02/20 05:15:31;;;;;;;14.00;4.13;;;4.70;99.90;;;;;;5030551;28;20116;-67
2022/02/20 05:17:57;;;;;;;11.30;3.70;;;4.70;99.90;;;;;;5029992;28;20117;-68
2022/02/20 05:20:23;;;;;;;11.38;3.78;;;4.70;99.90;;;;;;5030398;28;20045;-68
2022/02/20 05:22:48;;;;;;;10.68;3.83;;;4.70;99.90;;;;;;5031043;28;20609;-68
2022/02/20 05:25:14;;;;;;;11.77;4.25;;;4.70;99.90;;;;;;5031322;28;20457;-67
2022/02/20 05:27:42;;;;;;;9.43;3.92;;;4.70;99.90;;;;;;5028320;28;20040;-67
2022/02/20 05:30:09;;;;;;;18.33;4.15;;;4.70;99.90;;;;;;5030731;28;20079;-67
2022/02/20 05:32:35;;;;;;;14.68;4.57;;;4.70;99.90;;;;;;5026534;28;20064;-66
2022/02/20 05:35:01;;;;;;;11.50;4.28;;;4.70;99.90;;;;;;5029781;28;20069;-68
2022/02/20 05:37:26;;;;;;;13.55;5.45;;;4.70;99.90;;;;;;5028983;28;20065;-67
2022/02/20 05:39:52;;;;;;;19.85;4.78;;;4.70;99.90;;;;;;5030566;28;20049;-66
2022/02/20 05:42:18;;;;;;;14.52;4.95;;;4.80;99.90;;;;;;5033322;23;20073;-61
2022/02/20 05:44:43;;;;;;;15.13;5.57;;;4.80;99.90;;;;;;4998497;28;20037;-62
2022/02/20 05:47:09;;;;;;;26.25;5.80;;;4.80;99.90;;;;;;5010781;28;20165;-62
2022/02/20 05:49:35;;;;;;;15.40;5.30;;;4.80;99.90;;;;;;5011744;28;20030;-62
2022/02/20 05:52:01;;;;;;;14.00;5.28;;;4.90;99.90;;;;;;5011134;28;20060;-62
2022/02/20 05:54:26;;;;;;;16.63;5.82;;;5.00;99.90;;;;;;5011519;28;20135;-62
2022/02/20 05:56:52;;;;;;;21.20;6.32;;;5.00;99.90;;;;;;5010037;28;20548;-62
2022/02/20 05:59:17;;;;;;;13.95;5.43;;;5.00;99.90;;;;;;5010426;28;20046;-62
2022/02/20 06:01:43;;;;;;;15.70;5.00;;;5.10;99.90;;;;;;5010760;28;20087;-62
2022/02/20 06:04:09;;;;;;;31.10;5.32;;;5.10;99.90;;;;;;5010430;28;20402;-62
2022/02/20 06:06:34;;;;;;;18.30;5.53;;;5.10;99.90;;;;;;5010350;28;20117;-62
2022/02/20 06:09:00;;;;;;;25.52;6.10;;;5.10;99.90;;;;;;5010377;28;20040;-62
2022/02/20 06:11:26;;;;;;;27.90;5.60;;;5.20;99.90;;;;;;5009813;28;20422;-62
2022/02/20 06:13:53;;;;;;;19.10;5.25;;;5.20;99.90;;;;;;5011394;28;20094;-63
2022/02/20 06:16:19;;;;;;;18.85;5.95;;;5.30;99.90;;;;;;5011736;28;20065;-62
2022/02/20 06:18:45;;;;;;;16.83;5.45;;;5.30;99.90;;;;;;5011655;28;20565;-62
2022/02/20 06:21:12;;;;;;;22.00;5.43;;;5.40;99.90;;;;;;5009578;28;20109;-63
2022/02/20 06:23:38;;;;;;;18.73;5.65;;;5.40;99.90;;;;;;5010951;28;20037;-62
2022/02/20 06:26:04;;;;;;;19.52;5.65;;;5.50;99.90;;;;;;5011497;28;20033;-62
2022/02/20 06:28:29;;;;;;;14.77;4.82;;;5.50;99.90;;;;;;5011210;28;20074;-62
2022/02/20 06:30:55;;;;;;;16.08;5.78;;;5.60;99.90;;;;;;5011109;28;20034;-63
2022/02/20 06:33:21;;;;;;;15.70;5.07;;;5.70;99.90;;;;;;5011446;28;20048;-63
2022/02/20 06:35:46;;;;;;;19.38;5.53;;;5.80;99.90;;;;;;5011323;28;20120;-62
2022/02/20 06:38:12;;;;;;;20.25;5.90;;;5.80;99.90;;;;;;5011148;28;20038;-62
2022/02/20 06:40:38;;;;;;;21.13;4.88;;;5.90;99.90;;;;;;5010366;28;20033;-62
2022/02/20 06:43:04;;;;;;;18.63;6.38;;;5.90;99.90;;;;;;5008178;28;20521;-62
2022/02/20 06:45:30;;;;;;;25.15;4.85;;;6.00;99.90;;;;;;5010784;28;20029;-62
2022/02/20 06:47:55;;;;;;;33.97;5.93;;;6.10;99.90;;;;;;5009911;28;20033;-61
2022/02/20 06:50:21;;;;;;;18.02;5.03;;;6.20;99.90;;;;;;5010210;28;20050;-61
2022/02/20 06:52:46;;;;;;;19.52;5.40;;;6.20;99.90;;;;;;5011106;28;20052;-62
2022/02/20 06:55:12;;;;;;;15.38;6.25;;;6.30;99.90;;;;;;5011362;28;20048;-62
2022/02/20 06:57:39;;;;;;;27.08;4.95;;;6.40;99.90;;;;;;5010625;28;20044;-63
2022/02/20 07:00:10;;;;;;;21.13;5.45;;;6.50;99.90;;;;;;5011020;28;20049;-62
2022/02/20 07:02:36;;;;;;;18.77;5.20;;;6.60;99.90;;;;;;5010842;28;20117;-62
2022/02/20 07:05:02;;;;;;;19.88;4.38;;;6.70;99.90;;;;;;5009546;28;20046;-61
2022/02/20 07:07:27;;;;;;;20.02;4.90;;;6.70;99.90;;;;;;5009503;28;20513;-63
2022/02/20 07:09:53;;;;;;;19.60;4.43;;;6.80;99.90;;;;;;5011142;28;20454;-62
2022/02/20 07:12:18;;;;;;;14.98;3.50;;;6.90;99.90;;;;;;5009112;28;20537;-62
2022/02/20 07:14:44;;;;;;;11.20;3.00;;;6.90;99.90;;;;;;5009569;28;20033;-63
2022/02/20 07:17:09;;;;;;;18.02;3.38;;;7.10;99.90;;;;;;5008687;28;20074;-62
2022/02/20 07:19:35;;;;;;;13.48;3.10;;;7.20;99.90;;;;;;5009641;28;20041;-63
2022/02/20 07:22:01;;;;;;;21.30;2.90;;;7.20;99.90;;;;;;5009605;28;20030;-62
2022/02/20 07:24:26;;;;;;;13.30;2.80;;;7.40;99.90;;;;;;5008655;28;20397;-63
2022/02/20 07:26:52;;;;;;;17.98;3.70;;;7.50;99.90;;;;;;5009005;28;20042;-64
2022/02/20 07:29:18;;;;;;;12.68;2.30;;;7.60;99.90;;;;;;5010227;28;20118;-63
2022/02/20 07:31:44;;;;;;;22.25;4.82;;;7.60;99.90;;;;;;5008275;28;20076;-62
2022/02/20 07:34:09;;;;;;;16.48;3.10;;;7.80;99.90;;;;;;5009969;28;20069;-63
2022/02/20 07:36:41;;;;;;;19.88;4.07;;;7.80;99.90;;;;;;5008215;28;20038;-62
2022/02/20 07:39:07;;;;;;;25.65;2.78;;;7.90;99.90;;;;;;5007962;28;20033;-62
2022/02/20 07:41:33;;;;;;;22.60;3.60;;;7.90;99.90;;;;;;5008686;28;20041;-62
2022/02/20 07:43:58;;;;;;;20.08;3.90;;;7.90;99.90;;;;;;5006252;28;20026;-63
2022/02/20 07:46:24;;;;;;;20.17;3.08;;;8.00;99.90;;;;;;5009677;28;20498;-65
2022/02/20 07:48:51;;;;;;;18.88;2.90;;;8.00;99.90;;;;;;5009740;28;20490;-63
2022/02/20 07:51:17;;;;;;;16.10;2.53;;;8.10;99.90;;;;;;5009086;28;20042;-63
2022/02/20 07:53:43;;;;;;;20.83;4.32;;;8.20;99.90;;;;;;5008934;28;20034;-62
2022/02/20 07:56:09;;;;;;;28.05;2.85;;;8.30;99.90;;;;;;5008402;28;20041;-64
2022/02/20 07:58:37;;;;;;;24.63;3.00;;;8.30;99.90;;;;;;5008555;28;20076;-63
2022/02/20 08:01:03;;;;;;;25.60;3.65;;;8.40;99.90;;;;;;5007861;28;20058;-63
2022/02/20 08:03:28;;;;;;;29.30;4.38;;;8.40;99.90;;;;;;5008520;28;20041;-63
2022/02/20 08:05:54;;;;;;;23.70;4.63;;;8.50;99.90;;;;;;5009091;28;20042;-63
2022/02/20 08:08:20;;;;;;;24.08;3.97;;;8.60;99.90;;;;;;5009178;28;20077;-62
2022/02/20 08:10:45;;;;;;;44.55;5.85;;;8.60;99.90;;;;;;5008220;28;20038;-62
2022/02/20 08:13:11;;;;;;;31.83;5.22;;;8.60;99.90;;;;;;5006603;28;20046;-62
2022/02/20 08:15:37;;;;;;;42.17;7.38;;;8.70;99.90;;;;;;5008967;28;20036;-62
2022/02/20 08:18:03;;;;;;;40.22;6.25;;;8.80;99.90;;;;;;5008056;28;20121;-62
2022/02/20 08:20:28;;;;;;;28.88;5.43;;;8.80;99.90;;;;;;5008843;28;20114;-64
2022/02/20 08:22:54;;;;;;;48.85;5.28;;;8.90;99.90;;;;;;5007459;28;20112;-62
2022/02/20 08:25:20;;;;;;;33.30;5.35;;;8.90;99.90;;;;;;5010999;28;20132;-63
2022/02/20 08:27:45;;;;;;;34.13;4.55;;;8.90;99.90;;;;;;5010031;28;20092;-62
2022/02/20 08:30:12;;;;;;;35.45;5.53;;;9.00;99.90;;;;;;5012996;28;20473;-63
2022/02/20 08:32:38;;;;;;;33.75;5.30;;;9.00;99.90;;;;;;5014176;28;20038;-62
2022/02/20 08:35:08;;;;;;;33.42;4.88;;;9.10;99.90;;;;;;5012846;28;20498;-62
2022/02/20 08:37:40;;;;;;;45.07;5.47;;;9.10;99.90;;;;;;5012094;28;20505;-62
2022/02/20 08:40:06;;;;;;;35.83;4.57;;;9.10;99.90;;;;;;5012145;28;20034;-62
2022/02/20 08:42:32;;;;;;;27.27;4.57;;;9.20;99.90;;;;;;5007944;28;20034;-63
2022/02/20 08:44:58;;;;;;;32.58;5.68;;;9.20;99.90;;;;;;5012333;28;20064;-62
2022/02/20 08:47:24;;;;;;;31.00;4.82;;;9.30;99.90;;;;;;5011945;28;20507;-62
2022/02/20 08:49:49;;;;;;;31.15;6.22;;;9.30;99.90;;;;;;5010427;28;20038;-62
2022/02/20 08:52:15;;;;;;;43.55;4.75;;;9.30;99.90;;;;;;5011994;28;20395;-62
2022/02/20 08:54:41;;;;;;;42.13;4.30;;;9.30;99.90;;;;;;5008866;28;20049;-63
2022/02/20 08:57:08;;;;;;;34.42;5.78;;;9.40;99.90;;;;;;5011994;28;20057;-63
2022/02/20 08:59:35;;;;;;;35.67;5.25;;;9.40;99.90;;;;;;5011618;28;20049;-62
2022/02/20 09:02:00;;;;;;;34.08;4.55;;;9.40;99.90;;;;;;5009788;28;20038;-63
2022/02/20 09:04:26;;;;;;;66.10;6.70;;;9.50;99.90;;;;;;5007503;28;20045;-63
2022/02/20 09:06:52;;;;;;;39.70;7.32;;;9.50;99.90;;;;;;5006953;28;20486;-62
2022/02/20 09:09:17;;;;;;;41.45;5.22;;;9.60;99.90;;;;;;5010450;28;20398;-62
2022/02/20 09:11:43;;;;;;;29.02;4.53;;;9.60;99.90;;;;;;5010319;28;20119;-63
2022/02/20 09:14:09;;;;;;;29.40;3.65;;;9.70;99.90;;;;;;5011286;28;20030;-62
2022/02/20 09:16:35;;;;;;;41.20;6.00;;;9.70;99.90;;;;;;5009450;28;20034;-64
2022/02/20 09:19:03;;;;;;;38.15;4.55;;;9.80;99.90;;;;;;5009155;28;20592;-63
2022/02/20 09:21:30;;;;;;;31.63;6.38;;;9.80;99.90;;;;;;5010137;28;20045;-63
2022/02/20 09:23:56;;;;;;;29.00;4.65;;;9.90;99.90;;;;;;5010712;28;20119;-62
2022/02/20 09:26:22;;;;;;;39.58;7.05;;;9.90;99.90;;;;;;5011371;28;20044;-63
2022/02/20 09:28:47;;;;;;;24.48;4.38;;;9.90;99.90;;;;;;5010704;28;20033;-63
2022/02/20 09:31:13;;;;;;;40.05;5.15;;;9.90;99.90;;;;;;5011039;28;20049;-63
2022/02/20 09:33:39;;;;;;;28.73;4.60;;;9.90;99.90;;;;;;5010924;28;20458;-62
2022/02/20 09:36:07;;;;;;;27.70;4.82;;;10.00;99.90;;;;;;5011147;28;20057;-63
2022/02/20 09:38:33;;;;;;;38.80;4.55;;;10.00;99.90;;;;;;5010614;28;20045;-63
2022/02/20 09:40:59;;;;;;;46.15;6.00;;;10.00;99.90;;;;;;5010616;28;20115;-62
2022/02/20 09:43:25;;;;;;;36.40;4.97;;;10.10;99.90;;;;;;5006472;28;20509;-65
2022/02/20 09:45:53;;;;;;;29.27;6.40;;;10.10;99.90;;;;;;5010951;28;20034;-64
2022/02/20 09:48:19;;;;;;;33.38;6.40;;;10.20;99.90;;;;;;5011043;28;20042;-62
2022/02/20 09:50:45;;;;;;;31.83;5.05;;;10.10;99.90;;;;;;5010283;28;20128;-62
2022/02/20 09:53:12;;;;;;;31.17;4.75;;;10.20;99.90;;;;;;5010230;28;20077;-63
2022/02/20 09:55:38;;;;;;;35.80;5.70;;;10.20;99.90;;;;;;5010504;28;20048;-63
2022/02/20 09:58:03;;;;;;;53.92;7.97;;;10.10;99.90;;;;;;5010873;28;20129;-64
2022/02/20 10:00:29;;;;;;;43.05;4.43;;;10.20;99.90;;;;;;5008636;28;20134;-63
2022/02/20 10:02:55;;;;;;;39.50;4.78;;;10.20;99.90;;;;;;5010279;28;20486;-62
2022/02/20 10:05:23;;;;;;;43.45;5.10;;;10.20;99.90;;;;;;5010465;28;20569;-62
2022/02/20 10:07:50;;;;;;;35.67;5.40;;;10.10;99.90;;;;;;5006358;28;20676;-63
2022/02/20 10:10:27;;;;;;;46.80;6.05;;;10.10;99.90;;;;;;5008767;28;20030;-62
2022/02/20 10:13:03;;;;;;;32.33;4.22;;;10.10;99.90;;;;;;5007083;28;20030;-62
2022/02/20 10:15:31;;;;;;;39.80;5.07;;;10.10;99.90;;;;;;5009986;28;20065;-63
2022/02/20 10:18:10;;;;;;;37.40;5.88;;;10.00;99.90;;;;;;5008033;28;20493;-63
2022/02/20 10:20:36;;;;;;;50.67;6.57;;;9.90;99.90;;;;;;5009378;28;20433;-62
2022/02/20 10:23:06;;;;;;;44.75;6.68;;;9.90;99.90;;;;;;5011067;28;20022;-63
2022/02/20 10:25:32;;;;;;;36.55;5.57;;;9.80;99.90;;;;;;5010136;28;20088;-62
2022/02/20 10:27:57;;;;;;;37.58;4.47;;;9.90;99.90;;;;;;5010677;28;20034;-62
2022/02/20 10:30:28;;;;;;;38.47;5.55;;;9.90;99.90;;;;;;5009710;28;20033;-61
2022/02/20 10:33:12;;;;;;;43.25;6.75;;;9.80;99.90;;;;;;5009493;28;20058;-62
2022/02/20 10:35:45;;;;;;;43.70;5.50;;;9.70;99.90;;;;;;5009331;28;20057;-62
2022/02/20 10:38:16;;;;;;;47.40;8.13;;;9.70;99.90;;;;;;5009996;28;20042;-63
2022/02/20 10:40:44;;;;;;;40.65;5.75;;;9.70;99.90;;;;;;5008918;28;20180;-62
2022/02/20 10:43:34;;;;;;;43.28;5.95;;;9.70;99.90;;;;;;5005254;28;20046;-62
2022/02/20 10:46:06;;;;;;;41.17;5.18;;;9.60;99.90;;;;;;5007707;28;20030;-64
2022/02/20 10:48:38;;;;;;;36.70;5.78;;;9.60;99.90;;;;;;5009114;28;20414;-62
2022/02/20 10:51:04;;;;;;;33.53;5.00;;;9.60;99.90;;;;;;5007658;28;20030;-62
2022/02/20 10:53:33;;;;;;;41.47;5.70;;;9.60;99.90;;;;;;5004256;28;20026;-63
2022/02/20 10:55:59;;;;;;;29.98;5.32;;;9.60;99.90;;;;;;5011007;28;20033;-62
2022/02/20 10:58:31;;;;;;;48.22;5.97;;;9.60;99.90;;;;;;5011919;28;20498;-63
2022/02/20 11:00:58;;;;;;;37.75;6.28;;;9.60;99.90;;;;;;5012595;28;20115;-63
2022/02/20 11:03:29;;;;;;;28.92;4.72;;;9.60;99.90;;;;;;5013271;28;20184;-62
2022/02/20 11:05:57;;;;;;;32.83;6.40;;;9.60;99.90;;;;;;5012640;28;20124;-64
2022/02/20 11:08:24;;;;;;;50.63;8.23;;;9.60;99.90;;;;;;5011425;28;20500;-62
2022/02/20 11:10:51;;;;;;;29.30;5.65;;;9.60;99.90;;;;;;5011716;28;20030;-62
2022/02/20 11:13:18;;;;;;;35.25;5.25;;;9.60;99.90;;;;;;5011051;28;20048;-64
2022/02/20 11:15:46;;;;;;;41.88;5.20;;;9.60;99.90;;;;;;5009691;28;20525;-61
2022/02/20 11:18:16;;;;;;;24.83;4.30;;;9.60;99.90;;;;;;5009563;28;20152;-63
2022/02/20 11:20:47;;;;;;;37.17;5.63;;;9.60;99.90;;;;;;5005769;28;20449;-64
2022/02/20 11:23:16;;;;;;;;;;;9.60;99.90;;;;;;5011844;28;20092;-62
2022/02/20 11:25:44;;;;;;;44.25;5.90;;;9.60;99.90;;;;;;5012417;28;19972;-63
2022/02/20 11:28:10;;;;;;;41.60;5.82;;;9.60;99.90;;;;;;5011616;28;20445;-63
2022/02/20 11:30:36;;;;;;;39.30;5.85;;;9.60;99.90;;;;;;5011767;28;20038;-62
2022/02/20 11:33:09;;;;;;;40.03;5.45;;;9.60;99.90;;;;;;5004495;28;20057;-62
2022/02/20 11:35:39;;;;;;;35.72;5.95;;;9.60;99.90;;;;;;5008369;28;20132;-62
2022/02/20 11:38:10;;;;;;;33.67;6.03;;;9.60;99.90;;;;;;5010061;28;20092;-63
2022/02/20 11:41:02;;;;;;;52.30;5.95;;;9.60;99.90;;;;;;5007826;28;20045;-63
2022/02/20 11:43:49;;;;;;;31.88;6.10;;;9.60;99.90;;;;;;5024082;23;20050;-63
2022/02/20 11:46:20;;;;;;;53.90;5.15;;;9.50;99.90;;;;;;5008348;28;20620;-61
2022/02/20 11:49:04;;;;;;;44.13;4.95;;;9.50;99.90;;;;;;5008340;28;20034;-62
2022/02/20 11:51:33;;;;;;;37.85;6.00;;;9.60;99.90;;;;;;5007572;28;20563;-61
2022/02/20 11:54:25;;;;;;;42.95;5.22;;;9.50;99.90;;;;;;5007274;28;20041;-62
2022/02/20 11:57:12;;;;;;;35.33;7.70;;;9.50;99.90;;;;;;5006358;28;20045;-62
2022/02/20 11:59:39;;;;;;;34.83;5.47;;;9.60;99.90;;;;;;5007769;28;20129;-60
2022/02/20 12:02:12;;;;;;;38.72;5.22;;;9.60;99.90;;;;;;5008207;28;20038;-61
2022/02/20 12:04:53;;;;;;;41.90;4.72;;;9.50;99.90;;;;;;5008372;28;20041;-62
2022/02/20 12:07:27;;;;;;;;;;;9.50;99.90;;;;;;5012894;28;20153;-62
2022/02/20 12:10:19;;;;;;;43.83;6.18;;;9.50;99.90;;;;;;5010120;28;19940;-61
2022/02/20 12:12:48;;;;;;;52.70;7.50;;;9.50;99.90;;;;;;5009947;28;20084;-60
2022/02/20 12:15:35;;;;;;;48.45;6.28;;;9.50;99.90;;;;;;5010858;28;20037;-59
2022/02/20 12:18:24;;;;;;;42.00;5.47;;;9.60;99.90;;;;;;5009679;28;20068;-60
2022/02/20 12:20:53;;;;;;;45.53;6.75;;;9.60;99.90;;;;;;5010905;28;20113;-60
2022/02/20 12:23:47;;;;;;;41.38;5.32;;;9.60;99.90;;;;;;5010500;28;20041;-60
2022/02/20 12:26:40;;;;;;;43.50;6.88;;;9.60;99.90;;;;;;5010192;28;20436;-60
2022/02/20 12:29:18;;;;;;;41.38;6.25;;;9.70;99.90;;;;;;5009782;28;20100;-60
2022/02/20 12:32:11;;;;;;;44.45;5.85;;;9.60;99.90;;;;;;5009951;28;20038;-60
2022/02/20 12:34:43;;;;;;;40.58;6.75;;;9.60;99.90;;;;;;5010982;28;20041;-62
2022/02/20 12:37:10;;;;;;;38.53;6.60;;;9.60;99.90;;;;;;5011027;28;20041;-60
2022/02/20 12:39:36;;;;;;;41.35;5.80;;;9.60;99.90;;;;;;5010172;28;20080;-63
2022/02/20 12:42:04;;;;;;;43.22;5.60;;;9.60;99.90;;;;;;5008581;28;20026;-61
2022/02/20 12:44:32;;;;;;;39.95;5.32;;;9.60;99.90;;;;;;5007063;28;20034;-61
2022/02/20 12:46:59;;;;;;;35.05;5.47;;;9.60;99.90;;;;;;5010991;28;20393;-62
2022/02/20 12:49:25;;;;;;;37.13;5.95;;;9.60;99.90;;;;;;5005670;28;20030;-62
2022/02/20 12:52:07;;;;;;;37.03;5.57;;;9.70;99.90;;;;;;5010534;28;20639;-62